sensor_id;sensor_type;location;lat;lon;timestamp;pressure;altitude;pressure_sealevel;temperature;humidity
69842;BME280;57138;51.326;-0.068;2023-04-01T00:01:18;98013.94;;;8.94;100.00
69842;BME280;57138;51.326;-0.068;2023-04-01T00:03:44;98020.09;;;8.95;100.00
69842;BME280;57138;51.326;-0.068;2023-04-01T00:06:12;98020.88;;;8.95;100.00
69842;BME280;57138;51.326;-0.068;2023-04-01T00:08:38;98021.81;;;8.89;100.00
69842;BME280;57138;51.326;-0.068;2023-04-01T00:11:03;98036.88;;;8.95;100.00
69842;BME280;57138;51.326;-0.068;2023-04-01T00:13:29;98033.06;;;8.91;100.00
69842;BME280;57138;51.326;-0.068;2023-04-01T00:15:55;98037.94;;;8.94;100.00
69842;BME280;57138;51.326;-0.068;2023-04-01T00:18:21;98049.63;;;8.93;100.00
69842;BME280;57138;51.326;-0.068;2023-04-01T00:20:48;98046.41;;;8.91;100.00
69842;BME280;57138;51.326;-0.068;2023-04-01T00:23:15;98049.84;;;8.92;100.00
69842;BME280;57138;51.326;-0.068;2023-04-01T00:25:41;98051.72;;;8.91;100.00
69842;BME280;57138;51.326;-0.068;2023-04-01T00:28:06;98046.41;;;8.91;100.00
69842;BME280;57138;51.326;-0.068;2023-04-01T00:30:32;98055.41;;;8.90;100.00
69842;BME280;57138;51.326;-0.068;2023-04-01T00:32:57;98057.50;;;8.88;100.00
69842;BME280;57138;51.326;-0.068;2023-04-01T00:35:22;98061.78;;;8.89;100.00
69842;BME280;57138;51.326;-0.068;2023-04-01T00:37:48;98060.19;;;8.88;100.00
69842;BME280;57138;51.326;-0.068;2023-04-01T00:42:52;98066.53;;;8.87;100.00
69842;BME280;57138;51.326;-0.068;2023-04-01T00:45:35;98062.00;;;8.88;100.00
69842;BME280;57138;51.326;-0.068;2023-04-01T00:48:23;98063.75;;;8.82;100.00
69842;BME280;57138;51.326;-0.068;2023-04-01T00:50:54;98070.69;;;8.83;100.00
69842;BME280;57138;51.326;-0.068;2023-04-01T00:53:21;98072.22;;;8.79;100.00
69842;BME280;57138;51.326;-0.068;2023-04-01T00:56:00;98079.75;;;8.82;100.00
69842;BME280;57138;51.326;-0.068;2023-04-01T00:58:29;98088.78;;;8.81;100.00
69842;BME280;57138;51.326;-0.068;2023-04-01T01:00:58;98090.88;;;8.79;100.00
69842;BME280;57138;51.326;-0.068;2023-04-01T01:03:24;98087.59;;;8.77;100.00
69842;BME280;57138;51.326;-0.068;2023-04-01T01:08:44;98095.59;;;8.77;100.00
69842;BME280;57138;51.326;-0.068;2023-04-01T01:11:13;98102.44;;;8.73;100.00
69842;BME280;57138;51.326;-0.068;2023-04-01T01:13:53;98106.13;;;8.72;100.00
69842;BME280;57138;51.326;-0.068;2023-04-01T01:16:30;98105.34;;;8.71;100.00
69842;BME280;57138;51.326;-0.068;2023-04-01T01:19:31;98108.56;;;8.73;100.00
69842;BME280;57138;51.326;-0.068;2023-04-01T01:22:20;98108.34;;;8.75;100.00
69842;BME280;57138;51.326;-0.068;2023-04-01T01:24:55;98107.31;;;8.76;100.00
69842;BME280;57138;51.326;-0.068;2023-04-01T01:27:26;98111.22;;;8.73;100.00
69842;BME280;57138;51.326;-0.068;2023-04-01T01:37:39;98111.91;;;8.69;100.00
69842;BME280;57138;51.326;-0.068;2023-04-01T01:40:09;98126.28;;;8.68;100.00
69842;BME280;57138;51.326;-0.068;2023-04-01T01:42:39;98126.28;;;8.68;100.00
69842;BME280;57138;51.326;-0.068;2023-04-01T01:45:07;98130.44;;;8.63;100.00
69842;BME280;57138;51.326;-0.068;2023-04-01T01:47:35;98136.56;;;8.64;100.00
69842;BME280;57138;51.326;-0.068;2023-04-01T01:50:02;98129.25;;;8.59;100.00
69842;BME280;57138;51.326;-0.068;2023-04-01T01:52:28;98135.03;;;8.56;100.00
69842;BME280;57138;51.326;-0.068;2023-04-01T01:54:56;98132.47;;;8.50;100.00
69842;BME280;57138;51.326;-0.068;2023-04-01T01:57:31;98153.69;;;8.56;100.00
69842;BME280;57138;51.326;-0.068;2023-04-01T02:00:09;98147.78;;;8.54;100.00
69842;BME280;57138;51.326;-0.068;2023-04-01T02:02:45;98158.88;;;8.51;100.00
69842;BME280;57138;51.326;-0.068;2023-04-01T02:05:15;98154.59;;;8.50;100.00
69842;BME280;57138;51.326;-0.068;2023-04-01T02:07:44;98165.69;;;8.47;100.00
69842;BME280;57138;51.326;-0.068;2023-04-01T02:10:12;98157.72;;;8.47;100.00
69842;BME280;57138;51.326;-0.068;2023-04-01T02:12:38;98167.56;;;8.47;100.00
69842;BME280;57138;51.326;-0.068;2023-04-01T02:15:12;98171.59;;;8.49;100.00
69842;BME280;57138;51.326;-0.068;2023-04-01T02:17:43;98160.94;;;8.49;100.00
69842;BME280;57138;51.326;-0.068;2023-04-01T02:20:15;98176.94;;;8.49;100.00
69842;BME280;57138;51.326;-0.068;2023-04-01T02:22:48;98182.69;;;8.46;100.00
69842;BME280;57138;51.326;-0.068;2023-04-01T02:25:18;98183.13;;;8.43;100.00
69842;BME280;57138;51.326;-0.068;2023-04-01T02:27:46;98180.56;;;8.36;100.00
69842;BME280;57138;51.326;-0.068;2023-04-01T02:30:13;98194.75;;;8.30;100.00
69842;BME280;57138;51.326;-0.068;2023-04-01T02:32:39;98191.59;;;8.21;100.00
69842;BME280;57138;51.326;-0.068;2023-04-01T02:35:10;98199.41;;;8.16;100.00
69842;BME280;57138;51.326;-0.068;2023-04-01T02:37:37;98198.69;;;8.09;100.00
69842;BME280;57138;51.326;-0.068;2023-04-01T02:40:05;98208.53;;;8.08;100.00
69842;BME280;57138;51.326;-0.068;2023-04-01T02:42:35;98203.63;;;8.05;100.00
69842;BME280;57138;51.326;-0.068;2023-04-01T02:45:00;98213.84;;;8.08;100.00
69842;BME280;57138;51.326;-0.068;2023-04-01T02:47:26;98209.78;;;8.06;100.00
69842;BME280;57138;51.326;-0.068;2023-04-01T02:49:51;98196.31;;;8.01;100.00
69842;BME280;57138;51.326;-0.068;2023-04-01T02:52:23;98214.06;;;8.07;100.00
69842;BME280;57138;51.326;-0.068;2023-04-01T02:54:48;98213.84;;;8.08;100.00
69842;BME280;57138;51.326;-0.068;2023-04-01T02:57:14;98213.03;;;8.08;100.00
69842;BME280;57138;51.326;-0.068;2023-04-01T02:59:39;98213.47;;;8.05;100.00
69842;BME280;57138;51.326;-0.068;2023-04-01T03:02:05;98211.84;;;8.04;100.00
69842;BME280;57138;51.326;-0.068;2023-04-01T03:04:30;98208.59;;;8.02;100.00
69842;BME280;57138;51.326;-0.068;2023-04-01T03:06:55;98226.78;;;8.05;100.00
69842;BME280;57138;51.326;-0.068;2023-04-01T03:09:21;98218.00;;;8.04;100.00
69842;BME280;57138;51.326;-0.068;2023-04-01T03:11:47;98221.25;;;8.06;100.00
69842;BME280;57138;51.326;-0.068;2023-04-01T03:14:12;98223.31;;;8.04;100.00
69842;BME280;57138;51.326;-0.068;2023-04-01T03:16:37;98232.69;;;8.07;100.00
69842;BME280;57138;51.326;-0.068;2023-04-01T03:19:03;98233.75;;;8.06;100.00
69842;BME280;57138;51.326;-0.068;2023-04-01T03:21:28;98231.09;;;8.06;100.00
69842;BME280;57138;51.326;-0.068;2023-04-01T03:23:53;98238.00;;;8.07;100.00
69842;BME280;57138;51.326;-0.068;2023-04-01T03:26:19;98231.53;;;8.03;100.00
69842;BME280;57138;51.326;-0.068;2023-04-01T03:28:46;98245.78;;;8.08;100.00
69842;BME280;57138;51.326;-0.068;2023-04-01T03:31:12;98243.94;;;8.09;100.00
69842;BME280;57138;51.326;-0.068;2023-04-01T03:33:37;98253.97;;;8.07;100.00
69842;BME280;57138;51.326;-0.068;2023-04-01T03:36:03;98252.38;;;8.06;100.00
69842;BME280;57138;51.326;-0.068;2023-04-01T03:38:34;98252.16;;;8.07;100.00
69842;BME280;57138;51.326;-0.068;2023-04-01T03:41:04;98259.31;;;8.07;100.00
69842;BME280;57138;51.326;-0.068;2023-04-01T03:43:32;98268.56;;;8.04;100.00
69842;BME280;57138;51.326;-0.068;2023-04-01T03:45:57;98265.91;;;8.04;100.00
69842;BME280;57138;51.326;-0.068;2023-04-01T03:48:23;98260.81;;;8.03;100.00
69842;BME280;57138;51.326;-0.068;2023-04-01T03:50:49;98262.25;;;7.99;100.00
69842;BME280;57138;51.326;-0.068;2023-04-01T03:53:14;98268.16;;;8.01;100.00
69842;BME280;57138;51.326;-0.068;2023-04-01T03:55:40;98276.59;;;7.98;100.00
69842;BME280;57138;51.326;-0.068;2023-04-01T03:58:06;98273.94;;;7.98;100.00
69842;BME280;57138;51.326;-0.068;2023-04-01T04:00:32;98271.72;;;7.95;100.00
69842;BME280;57138;51.326;-0.068;2023-04-01T04:02:58;98276.81;;;7.96;100.00
69842;BME280;57138;51.326;-0.068;2023-04-01T04:05:25;98280.31;;;7.97;100.00
69842;BME280;57138;51.326;-0.068;2023-04-01T04:07:51;98281.34;;;7.96;100.00
69842;BME280;57138;51.326;-0.068;2023-04-01T04:10:16;98285.00;;;7.95;100.00
69842;BME280;57138;51.326;-0.068;2023-04-01T04:12:42;98287.09;;;7.92;100.00
69842;BME280;57138;51.326;-0.068;2023-04-01T04:15:08;98288.13;;;7.91;100.00
69842;BME280;57138;51.326;-0.068;2023-04-01T04:17:33;98294.06;;;7.94;100.00
69842;BME280;57138;51.326;-0.068;2023-04-01T04:19:59;98294.63;;;7.96;100.00
69842;BME280;57138;51.326;-0.068;2023-04-01T04:22:25;98302.63;;;7.96;100.00
69842;BME280;57138;51.326;-0.068;2023-04-01T04:24:50;98304.06;;;7.91;100.00
69842;BME280;57138;51.326;-0.068;2023-04-01T04:27:16;98310.03;;;7.94;100.00
69842;BME280;57138;51.326;-0.068;2023-04-01T04:29:41;98318.00;;;7.94;100.00
69842;BME280;57138;51.326;-0.068;2023-04-01T04:32:06;98317.63;;;7.90;100.00
69842;BME280;57138;51.326;-0.068;2023-04-01T04:34:32;98316.78;;;7.89;100.00
69842;BME280;57138;51.326;-0.068;2023-04-01T04:36:57;98317.88;;;7.82;100.00
69842;BME280;57138;51.326;-0.068;2023-04-01T04:39:23;98324.03;;;7.82;100.00
69842;BME280;57138;51.326;-0.068;2023-04-01T04:41:48;98324.25;;;7.81;100.00
69842;BME280;57138;51.326;-0.068;2023-04-01T04:44:14;98328.16;;;7.78;100.00
69842;BME280;57138;51.326;-0.068;2023-04-01T04:46:39;98328.00;;;7.73;100.00
69842;BME280;57138;51.326;-0.068;2023-04-01T04:49:05;98321.47;;;7.69;100.00
69842;BME280;57138;51.326;-0.068;2023-04-01T04:51:31;98324.94;;;7.69;100.00
69842;BME280;57138;51.326;-0.068;2023-04-01T04:53:59;98322.13;;;7.64;100.00
69842;BME280;57138;51.326;-0.068;2023-04-01T04:56:25;98335.78;;;7.68;100.00
69842;BME280;57138;51.326;-0.068;2023-04-01T04:58:51;98337.44;;;7.69;100.00
69842;BME280;57138;51.326;-0.068;2023-04-01T05:01:17;98342.75;;;7.69;100.00
69842;BME280;57138;51.326;-0.068;2023-04-01T05:03:43;98337.88;;;7.66;100.00
69842;BME280;57138;51.326;-0.068;2023-04-01T05:06:11;98341.94;;;7.68;100.00
69842;BME280;57138;51.326;-0.068;2023-04-01T05:08:37;98349.94;;;7.68;100.00
69842;BME280;57138;51.326;-0.068;2023-04-01T05:11:07;98350.34;;;7.65;100.00
69842;BME280;57138;51.326;-0.068;2023-04-01T05:13:37;98365.25;;;7.66;100.00
69842;BME280;57138;51.326;-0.068;2023-04-01T05:16:02;98362.00;;;7.64;100.00
69842;BME280;57138;51.326;-0.068;2023-04-01T05:18:27;98358.16;;;7.60;100.00
69842;BME280;57138;51.326;-0.068;2023-04-01T05:20:54;98360.81;;;7.60;100.00
69842;BME280;57138;51.326;-0.068;2023-04-01T05:23:21;98371.22;;;7.62;100.00
69842;BME280;57138;51.326;-0.068;2023-04-01T05:25:48;98371.84;;;7.64;100.00
69842;BME280;57138;51.326;-0.068;2023-04-01T05:28:14;98372.28;;;7.61;100.00
69842;BME280;57138;51.326;-0.068;2023-04-01T05:30:40;98373.09;;;7.61;100.00
69842;BME280;57138;51.326;-0.068;2023-04-01T05:33:07;98369.00;;;7.59;100.00
69842;BME280;57138;51.326;-0.068;2023-04-01T05:35:33;98383.72;;;7.61;100.00
69842;BME280;57138;51.326;-0.068;2023-04-01T05:37:58;98374.31;;;7.59;100.00
69842;BME280;57138;51.326;-0.068;2023-04-01T05:40:23;98383.72;;;7.61;100.00
69842;BME280;57138;51.326;-0.068;2023-04-01T05:42:49;98384.53;;;7.62;100.00
69842;BME280;57138;51.326;-0.068;2023-04-01T05:45:14;98380.84;;;7.63;100.00
69842;BME280;57138;51.326;-0.068;2023-04-01T05:47:41;98374.94;;;7.61;100.00
69842;BME280;57138;51.326;-0.068;2023-04-01T05:50:08;98387.19;;;7.62;100.00
69842;BME280;57138;51.326;-0.068;2023-04-01T05:52:33;98388.81;;;7.63;100.00
69842;BME280;57138;51.326;-0.068;2023-04-01T05:54:59;98388.25;;;7.61;100.00
69842;BME280;57138;51.326;-0.068;2023-04-01T05:57:25;98388.25;;;7.61;100.00
69842;BME280;57138;51.326;-0.068;2023-04-01T05:59:50;98402.13;;;7.63;100.00
69842;BME280;57138;51.326;-0.068;2023-04-01T06:02:17;98398.03;;;7.67;100.00
69842;BME280;57138;51.326;-0.068;2023-04-01T06:04:43;98399.63;;;7.68;100.00
69842;BME280;57138;51.326;-0.068;2023-04-01T06:07:17;98418.88;;;7.70;100.00
69842;BME280;57138;51.326;-0.068;2023-04-01T06:09:44;98405.78;;;7.68;100.00
69842;BME280;57138;51.326;-0.068;2023-04-01T06:12:29;98414.56;;;7.69;100.00
69842;BME280;57138;51.326;-0.068;2023-04-01T06:15:16;98416.63;;;7.67;100.00
69842;BME280;57138;51.326;-0.068;2023-04-01T06:20:29;98430.16;;;7.65;100.00
69842;BME280;57138;51.326;-0.068;2023-04-01T06:47:59;98457.03;;;7.50;100.00
69842;BME280;57138;51.326;-0.068;2023-04-01T06:50:55;98456.44;;;7.48;100.00
69842;BME280;57138;51.326;-0.068;2023-04-01T06:56:08;98457.03;;;7.50;100.00
69842;BME280;57138;51.326;-0.068;2023-04-01T06:58:45;98454.19;;;7.45;100.00
69842;BME280;57138;51.326;-0.068;2023-04-01T07:01:21;98467.66;;;7.50;100.00
69842;BME280;57138;51.326;-0.068;2023-04-01T07:03:49;98467.66;;;7.50;100.00
69842;BME280;57138;51.326;-0.068;2023-04-01T07:06:27;98469.72;;;7.48;100.00
69842;BME280;57138;51.326;-0.068;2023-04-01T07:08:55;98480.38;;;7.42;100.00
69842;BME280;57138;51.326;-0.068;2023-04-01T07:11:29;98485.69;;;7.42;100.00
69842;BME280;57138;51.326;-0.068;2023-04-01T07:14:10;98502.47;;;7.42;100.00
69842;BME280;57138;51.326;-0.068;2023-04-01T07:16:49;98497.56;;;7.39;100.00
69842;BME280;57138;51.326;-0.068;2023-04-01T07:19:34;98504.72;;;7.38;100.00
69842;BME280;57138;51.326;-0.068;2023-04-01T07:24:44;98505.75;;;7.37;100.00
69842;BME280;57138;51.326;-0.068;2023-04-01T07:27:11;98507.16;;;7.40;100.00
69842;BME280;57138;51.326;-0.068;2023-04-01T07:29:36;98507.78;;;7.42;100.00
69842;BME280;57138;51.326;-0.068;2023-04-01T07:40:49;98525.56;;;7.48;100.00
69842;BME280;57138;51.326;-0.068;2023-04-01T07:46:34;98527.81;;;7.51;100.00
69842;BME280;57138;51.326;-0.068;2023-04-01T07:49:14;98531.06;;;7.53;100.00
69842;BME280;57138;51.326;-0.068;2023-04-01T08:00:20;98546.19;;;7.60;100.00
69842;BME280;57138;51.326;-0.068;2023-04-01T08:05:24;98562.34;;;7.58;100.00
69842;BME280;57138;51.326;-0.068;2023-04-01T08:08:19;98561.34;;;7.59;100.00
69842;BME280;57138;51.326;-0.068;2023-04-01T08:16:37;98566.22;;;7.55;100.00
69842;BME280;57138;51.326;-0.068;2023-04-01T08:21:58;98569.94;;;7.48;100.00
69842;BME280;57138;51.326;-0.068;2023-04-01T08:26:57;98591.63;;;7.51;100.00
69842;BME280;57138;51.326;-0.068;2023-04-01T08:30:33;98589.56;;;7.53;100.00
69842;BME280;57138;51.326;-0.068;2023-04-01T08:32:39;98591.63;;;7.51;100.00
69842;BME280;57138;51.326;-0.068;2023-04-01T08:35:15;98598.56;;;7.52;100.00
69842;BME280;57138;51.326;-0.068;2023-04-01T08:37:44;98604.50;;;7.54;100.00
69842;BME280;57138;51.326;-0.068;2023-04-01T08:43:16;98612.91;;;7.51;100.00
69842;BME280;57138;51.326;-0.068;2023-04-01T08:51:11;98626.63;;;7.48;100.00
69842;BME280;57138;51.326;-0.068;2023-04-01T08:56:34;98623.97;;;7.48;100.00
69842;BME280;57138;51.326;-0.068;2023-04-01T08:59:11;98631.53;;;7.51;100.00
69842;BME280;57138;51.326;-0.068;2023-04-01T09:04:29;98634.97;;;7.59;100.00
69842;BME280;57138;51.326;-0.068;2023-04-01T09:07:29;98631.28;;;7.60;100.00
69842;BME280;57138;51.326;-0.068;2023-04-01T09:13:19;98641.50;;;7.69;100.00
69842;BME280;57138;51.326;-0.068;2023-04-01T09:18:58;98645.56;;;7.85;100.00
69842;BME280;57138;51.326;-0.068;2023-04-01T09:27:05;98655.34;;;7.91;100.00
69842;BME280;57138;51.326;-0.068;2023-04-01T09:38:23;98665.38;;;7.89;100.00
69842;BME280;57138;51.326;-0.068;2023-04-01T09:46:20;98664.38;;;7.90;100.00
69842;BME280;57138;51.326;-0.068;2023-04-01T09:52:10;98676.25;;;7.88;100.00
69842;BME280;57138;51.326;-0.068;2023-04-01T10:00:36;98690.75;;;7.99;100.00
69842;BME280;57138;51.326;-0.068;2023-04-01T10:06:14;98695.88;;;8.00;100.00
69842;BME280;57138;51.326;-0.068;2023-04-01T10:17:57;98714.72;;;7.99;100.00
69842;BME280;57138;51.326;-0.068;2023-04-01T10:31:11;98727.97;;;8.19;100.00
69842;BME280;57138;51.326;-0.068;2023-04-01T10:36:58;98739.63;;;8.18;100.00
69842;BME280;57138;51.326;-0.068;2023-04-01T10:48:18;98755.22;;;8.14;100.00
69842;BME280;57138;51.326;-0.068;2023-04-01T11:18:13;98787.47;;;8.58;100.00
69842;BME280;57138;51.326;-0.068;2023-04-01T11:31:35;98799.38;;;8.42;96.76
69842;BME280;57138;51.326;-0.068;2023-04-01T11:34:29;98807.59;;;8.47;100.00
69842;BME280;57138;51.326;-0.068;2023-04-01T11:37:14;98816.56;;;8.59;97.79
69842;BME280;57138;51.326;-0.068;2023-04-01T11:45:36;98819.28;;;8.98;97.74
69842;BME280;57138;51.326;-0.068;2023-04-01T12:05:07;98832.97;;;9.47;94.90
69842;BME280;57138;51.326;-0.068;2023-04-01T12:10:40;98826.44;;;9.43;94.69
69842;BME280;57138;51.326;-0.068;2023-04-01T12:15:48;98856.13;;;9.53;93.99
69842;BME280;57138;51.326;-0.068;2023-04-01T12:18:24;98856.97;;;9.47;93.42
69842;BME280;57138;51.326;-0.068;2023-04-01T12:23:42;98860.91;;;9.38;92.44
69842;BME280;57138;51.326;-0.068;2023-04-01T12:26:23;98867.94;;;9.32;89.91
69842;BME280;57138;51.326;-0.068;2023-04-01T12:37:25;98883.47;;;9.42;93.93
69842;BME280;57138;51.326;-0.068;2023-04-01T12:40:07;98887.97;;;9.48;93.01
69842;BME280;57138;51.326;-0.068;2023-04-01T12:49:01;98899.94;;;9.70;90.54
69842;BME280;57138;51.326;-0.068;2023-04-01T12:54:46;98905.63;;;9.81;90.23
69842;BME280;57138;51.326;-0.068;2023-04-01T13:00:09;98915.59;;;9.92;83.51
69842;BME280;57138;51.326;-0.068;2023-04-01T13:11:16;98917.75;;;9.77;89.02
69842;BME280;57138;51.326;-0.068;2023-04-01T13:13:55;98926.81;;;9.76;89.00
69842;BME280;57138;51.326;-0.068;2023-04-01T13:16:27;98930.06;;;9.78;88.95
69842;BME280;57138;51.326;-0.068;2023-04-01T13:27:34;98941.06;;;9.95;86.20
69842;BME280;57138;51.326;-0.068;2023-04-01T13:30:13;98936.88;;;10.05;88.21
69842;BME280;57138;51.326;-0.068;2023-04-01T13:38:32;98957.81;;;10.08;84.40
69842;BME280;57138;51.326;-0.068;2023-04-01T13:41:15;98960.75;;;10.00;85.49
69842;BME280;57138;51.326;-0.068;2023-04-01T14:00:12;98986.13;;;10.10;82.59
69842;BME280;57138;51.326;-0.068;2023-04-01T14:02:47;98988.38;;;10.13;82.14
69842;BME280;57138;51.326;-0.068;2023-04-01T14:11:25;98989.00;;;10.15;81.49
69842;BME280;57138;51.326;-0.068;2023-04-01T14:22:25;99015.28;;;10.11;82.79
69842;BME280;57138;51.326;-0.068;2023-04-01T14:25:14;99015.50;;;10.10;81.26
69842;BME280;57138;51.326;-0.068;2023-04-01T14:47:39;99050.22;;;10.16;78.18
69842;BME280;57138;51.326;-0.068;2023-04-01T14:50:17;99053.13;;;10.08;78.80
69842;BME280;57138;51.326;-0.068;2023-04-01T14:55:36;99064.66;;;10.02;80.46
69842;BME280;57138;51.326;-0.068;2023-04-01T14:58:13;99073.66;;;10.07;81.44
69842;BME280;57138;51.326;-0.068;2023-04-01T15:08:32;99084.19;;;10.02;79.24
69842;BME280;57138;51.326;-0.068;2023-04-01T15:14:08;99085.28;;;9.88;79.52
69842;BME280;57138;51.326;-0.068;2023-04-01T15:16:54;99076.88;;;9.78;80.05
69842;BME280;57138;51.326;-0.068;2023-04-01T15:19:29;99093.94;;;9.77;80.31
69842;BME280;57138;51.326;-0.068;2023-04-01T15:22:20;99104.22;;;9.73;80.10
69842;BME280;57138;51.326;-0.068;2023-04-01T15:27:47;99098.91;;;9.66;79.82
69842;BME280;57138;51.326;-0.068;2023-04-01T15:30:28;99107.53;;;9.62;79.24
69842;BME280;57138;51.326;-0.068;2023-04-01T15:33:17;99102.63;;;9.59;78.84
69842;BME280;57138;51.326;-0.068;2023-04-01T15:36:12;99129.31;;;9.52;78.00
69842;BME280;57138;51.326;-0.068;2023-04-01T15:41:29;99132.41;;;9.35;79.00
69842;BME280;57138;51.326;-0.068;2023-04-01T15:44:01;99140.22;;;9.30;78.81
69842;BME280;57138;51.326;-0.068;2023-04-01T15:47:00;99142.25;;;9.28;78.60
69842;BME280;57138;51.326;-0.068;2023-04-01T15:49:39;99140.84;;;9.26;79.44
69842;BME280;57138;51.326;-0.068;2023-04-01T15:57:38;99144.56;;;9.18;78.50
69842;BME280;57138;51.326;-0.068;2023-04-01T16:00:18;99153.78;;;9.15;78.27
69842;BME280;57138;51.326;-0.068;2023-04-01T16:02:51;99163.84;;;9.13;79.25
69842;BME280;57138;51.326;-0.068;2023-04-01T16:07:57;99160.13;;;9.08;78.97
69842;BME280;57138;51.326;-0.068;2023-04-01T16:13:42;99172.63;;;9.00;79.79
69842;BME280;57138;51.326;-0.068;2023-04-01T16:16:46;99186.16;;;8.99;79.91
69842;BME280;57138;51.326;-0.068;2023-04-01T16:19:30;99184.75;;;8.96;80.56
69842;BME280;57138;51.326;-0.068;2023-04-01T16:22:35;99188.22;;;8.97;80.05
69842;BME280;57138;51.326;-0.068;2023-04-01T16:31:06;99210.75;;;8.88;80.49
69842;BME280;57138;51.326;-0.068;2023-04-01T16:36:54;99215.88;;;8.82;80.50
69842;BME280;57138;51.326;-0.068;2023-04-01T16:39:41;99220.81;;;8.79;80.45
69842;BME280;57138;51.326;-0.068;2023-04-01T16:47:37;99240.47;;;8.71;80.10
69842;BME280;57138;51.326;-0.068;2023-04-01T16:55:49;99254.78;;;8.63;79.89
69842;BME280;57138;51.326;-0.068;2023-04-01T16:58:26;99248.78;;;8.55;79.89
69842;BME280;57138;51.326;-0.068;2023-04-01T17:01:07;99249.41;;;8.50;79.51
69842;BME280;57138;51.326;-0.068;2023-04-01T17:03:46;99259.44;;;8.48;79.60
69842;BME280;57138;51.326;-0.068;2023-04-01T17:06:37;99265.78;;;8.47;80.57
69842;BME280;57138;51.326;-0.068;2023-04-01T17:09:18;99273.97;;;8.45;80.61
69842;BME280;57138;51.326;-0.068;2023-04-01T17:11:58;99274.97;;;8.44;80.47
69842;BME280;57138;51.326;-0.068;2023-04-01T17:20:04;99290.31;;;8.42;79.51
69842;BME280;57138;51.326;-0.068;2023-04-01T17:22:52;99288.44;;;8.36;79.50
69842;BME280;57138;51.326;-0.068;2023-04-01T17:25:38;99306.25;;;8.36;79.91
69842;BME280;57138;51.326;-0.068;2023-04-01T17:36:40;99316.44;;;8.25;81.12
69842;BME280;57138;51.326;-0.068;2023-04-01T17:39:32;99338.19;;;8.29;81.12
69842;BME280;57138;51.326;-0.068;2023-04-01T17:42:21;99337.34;;;8.28;79.89
69842;BME280;57138;51.326;-0.068;2023-04-01T17:47:36;99330.41;;;8.27;79.29
69842;BME280;57138;51.326;-0.068;2023-04-01T17:50:20;99340.78;;;8.22;78.86
69842;BME280;57138;51.326;-0.068;2023-04-01T17:53:06;99343.06;;;8.25;79.42
69842;BME280;57138;51.326;-0.068;2023-04-01T17:58:29;99355.75;;;8.23;78.67
69842;BME280;57138;51.326;-0.068;2023-04-01T18:01:31;99353.28;;;8.22;78.21
69842;BME280;57138;51.326;-0.068;2023-04-01T18:07:07;99365.59;;;8.23;79.72
69842;BME280;57138;51.326;-0.068;2023-04-01T18:12:36;99384.44;;;8.21;79.33
69842;BME280;57138;51.326;-0.068;2023-04-01T18:15:32;99380.75;;;8.22;78.23
69842;BME280;57138;51.326;-0.068;2023-04-01T18:18:23;99388.09;;;8.20;79.19
69842;BME280;57138;51.326;-0.068;2023-04-01T18:21:07;99396.31;;;8.25;79.34
69842;BME280;57138;51.326;-0.068;2023-04-01T18:26:35;99401.66;;;8.25;79.32
69842;BME280;57138;51.326;-0.068;2023-04-01T18:29:13;99407.63;;;8.27;78.69
69842;BME280;57138;51.326;-0.068;2023-04-01T18:37:01;99422.56;;;8.28;79.29
69842;BME280;57138;51.326;-0.068;2023-04-01T18:39:41;99429.94;;;8.26;79.54
69842;BME280;57138;51.326;-0.068;2023-04-01T18:45:21;99430.75;;;8.27;79.02
69842;BME280;57138;51.326;-0.068;2023-04-01T18:50:47;99447.78;;;8.26;79.51
69842;BME280;57138;51.326;-0.068;2023-04-01T18:53:25;99456.56;;;8.26;79.08
69842;BME280;57138;51.326;-0.068;2023-04-01T18:55:59;99457.78;;;8.24;78.13
69842;BME280;57138;51.326;-0.068;2023-04-01T18:58:34;99459.81;;;8.22;78.67
69842;BME280;57138;51.326;-0.068;2023-04-01T19:01:15;99471.84;;;8.18;77.92
69842;BME280;57138;51.326;-0.068;2023-04-01T19:04:03;99469.56;;;8.15;78.53
69842;BME280;57138;51.326;-0.068;2023-04-01T19:09:31;99470.41;;;8.15;79.04
69842;BME280;57138;51.326;-0.068;2023-04-01T19:12:58;99477.56;;;8.15;79.32
69842;BME280;57138;51.326;-0.068;2023-04-01T19:15:33;99481.06;;;8.15;80.04
69842;BME280;57138;51.326;-0.068;2023-04-01T19:21:01;99492.09;;;8.12;79.86
69842;BME280;57138;51.326;-0.068;2023-04-01T19:26:14;99508.47;;;8.09;81.18
69842;BME280;57138;51.326;-0.068;2023-04-01T19:28:48;99508.66;;;8.07;81.74
69842;BME280;57138;51.326;-0.068;2023-04-01T19:36:58;99529.22;;;7.99;82.37
69842;BME280;57138;51.326;-0.068;2023-04-01T19:39:48;99531.88;;;7.99;82.53
69842;BME280;57138;51.326;-0.068;2023-04-01T19:42:50;99533.28;;;7.95;83.57
69842;BME280;57138;51.326;-0.068;2023-04-01T20:01:00;99560.31;;;7.77;85.90
69842;BME280;57138;51.326;-0.068;2023-04-01T20:09:16;99577.94;;;7.63;87.75
69842;BME280;57138;51.326;-0.068;2023-04-01T20:12:05;99588.31;;;7.58;88.59
69842;BME280;57138;51.326;-0.068;2023-04-01T20:14:51;99581.09;;;7.51;89.70
69842;BME280;57138;51.326;-0.068;2023-04-01T20:17:46;99593.44;;;7.44;89.39
69842;BME280;57138;51.326;-0.068;2023-04-01T20:23:00;99613.63;;;7.38;89.66
69842;BME280;57138;51.326;-0.068;2023-04-01T20:25:39;99611.91;;;7.31;90.54
69842;BME280;57138;51.326;-0.068;2023-04-01T20:39:25;99650.81;;;7.09;92.95
69842;BME280;57138;51.326;-0.068;2023-04-01T20:47:54;99653.72;;;6.99;93.13
69842;BME280;57138;51.326;-0.068;2023-04-01T20:50:52;99662.69;;;6.98;93.01
69842;BME280;57138;51.326;-0.068;2023-04-01T20:53:29;99678.00;;;6.96;91.90
69842;BME280;57138;51.326;-0.068;2023-04-01T20:57:09;99671.38;;;6.92;91.99
69842;BME280;57138;51.326;-0.068;2023-04-01T21:02:32;99697.94;;;6.92;91.77
69842;BME280;57138;51.326;-0.068;2023-04-01T21:05:33;99690.34;;;6.89;90.36
69842;BME280;57138;51.326;-0.068;2023-04-01T21:10:56;99697.84;;;6.85;89.81
69842;BME280;57138;51.326;-0.068;2023-04-01T21:13:47;99699.69;;;6.84;89.81
69842;BME280;57138;51.326;-0.068;2023-04-01T21:19:28;99704.34;;;6.82;88.65
69842;BME280;57138;51.326;-0.068;2023-04-01T21:27:49;99722.28;;;6.80;88.42
69842;BME280;57138;51.326;-0.068;2023-04-01T21:36:24;99736.59;;;6.79;88.48
69842;BME280;57138;51.326;-0.068;2023-04-01T21:42:27;99747.22;;;6.79;87.92
69842;BME280;57138;51.326;-0.068;2023-04-01T21:44:41;99747.22;;;6.79;87.57